In Rescue
 
Open Full Screen Window  High Contrast Mode
Wind Gusting 15 knots
11
May 20, 2019 3:10 PM EDT
Weather Information
Wind Direction
  300 °
Wind Speed
  11 kt (13 mph)
Wind Gust
  15 kt (17 mph)
Altimeter
30.01 in
Visibility
10 SM
Temperature
11° C
52° F
Dewpoint
02° C
36° F
Humidity
54%
Sky Condition
Overcast @ 4,100 ft
Broken @ 3,400 ft
VFR

METAR KMGN 201910Z AUTO 30011G15KT 10SM BKN034 OVC041 11/02 A3001 RMK AO2 T01130028

FAA Disclaimer: The data displayed is for advisory purposes only and is not to be used for flight planning or operations.